Weather observations for the past three days for
Pella, Pella Municipal Airport
Metric (Imperial)
Date Time (cdt) Wind (kph) Vis. (km) Weather Sky Cond. Temperature (ºC) Relative Humidity Wind Chill (°C) Heat Index (°C) Pressure Precipitation (cm)
Air Dwpt 6 hour altimeter (cm) sea level (mb) 1 hr 3 hr 6 hr
Max. Min.
01 17:35 S 11 16.09 Fair CLR 33.9 22.3 51% 38 75.97 0.0
01 17:15 S 15 16.09 Fair CLR 34.3 22.4 50% 39 75.97 0.0
01 16:55 S 9 16.09 Fair CLR 34.7 22.2 48% 39 75.97 0.0
01 16:35 SW 15 16.09 Fair CLR 34.9 21.1 45% 38 76 0.0
01 16:15 SW 13 16.09 Fair CLR 34.9 21.1 45% 38 76 0.0
01 15:55 SW 17 16.09 Fair CLR 34.8 20.9 44% 38 76 0.0
01 15:35 S 19 16.09 Fair CLR 35 22.2 47% 40 76.02 0.0
01 15:15 SW 13 16.09 Fair CLR 34.9 22 47% 39 76.02 0.0
01 14:55 SW 17 16.09 Fair CLR 34.7 21.3 46% 38 76.05 0.0
01 14:35 SW 15 11.27 Fair with Haze CLR 34.4 21.1 46% 38 76.07 0.0
01 14:15 SW 13 16.09 Fair CLR 34.3 21.6 47% 38 76.07 0.0
01 13:55 S 13 16.09 Fair CLR 33.9 21.7 49% 38 76.07 0.0
01 13:35 SW 11 8.05 Fair with Haze CLR 33.7 21.6 49% 37 76.1 0.0
01 13:15 SW 13 16.09 Fair CLR 33.4 21.9 51% 37 76.1 0.0
01 12:55 S 11 16.09 Fair CLR 33.1 21.4 33.4 22.8 50% 37 76.12 0.0
01 12:35 S 11 16.09 Fair CLR 32.8 21.4 51% 36 76.15 0.0
01 12:15 S 17 16.09 Fair CLR 32.3 21.5 53% 36 76.15 0.0
01 11:55 S 15 11.27 Fair with Haze CLR 32.1 21.6 54% 36 76.15 0.0
01 11:35 SW 13 16.09 Fair CLR 31.7 20.8 52% 34 76.15 0.0
01 11:15 SW 9 16.09 Fair CLR 30.9 22 59% 34 76.15 0.0
01 10:55 S 9 11.27 Fair CLR 30.4 22.1 61% 34 76.15 0.0
01 10:35 S 9 16.09 Fair CLR 29.6 21.9 63% 33 76.15 0.0
01 10:15 S 7 16.09 Fair CLR 29 21.9 66% 32 76.15 0.0
01 09:55 S 13 11.27 Fair CLR 28.2 21.7 68% 31 76.15 0.0
01 09:35 S 13 16.09 Fair CLR 27.2 22.3 75% 30 76.15 0.0
01 09:15 S 11 16.09 Fair CLR 26.3 21.8 76% 28 76.15 0.0
01 08:55 S 9 16.09 Fair CLR 25.9 22.5 82% 28 76.15 0.0
01 08:35 S 11 16.09 Fair CLR 26.2 22.8 82% 28 76.17 0.0
01 08:15 Calm 16.09 Fair CLR 24.9 22.7 88% 26 76.15 0.0
01 07:55 S 7 16.09 Fair CLR 24.2 22.6 91% 24 76.17 0.0
01 07:35 S 7 16.09 Fair CLR 23.7 22.7 94% 76.15 0.0
01 07:15 S 7 16.09 Fair CLR 23 22.5 97% 76.15 0.0
01 06:55 S 7 16.09 Fair CLR 22.8 22.3 26.1 22.5 97% 76.12 0.0
01 06:35 S 6 11.27 Fair CLR 22.5 22 97% 76.12 0.0
01 06:15 S 6 6.44 Light Rain Fog/Mist CLR 22.8 22.2 96% 76.1 0.0
01 05:55 SE 6 16.09 Fair CLR 22.5 22.1 98% 76.1 0.0
01 05:35 Calm 16.09 Fair CLR 22.9 22.4 97% 76.1 0.0
01 05:15 Calm 16.09 Fair CLR 23.3 22.7 96% 76.1 0.0
01 04:55 Calm 11.27 Fair CLR 22.9 22.4 97% 76.1 0.0
01 04:35 Calm 16.09 Fair CLR 23.9 22.9 94% 23 76.1 0.0
01 04:15 Calm 16.09 Fair CLR 24 23 94% 23 76.1 0.0
01 03:55 Calm 16.09 Fair CLR 23.2 22.6 96% 76.1 0.0
01 03:35 Calm 16.09 Fair CLR 23.6 23.1 97% 76.1 0.0
01 03:15 Calm 16.09 Fair CLR 23.7 23 96% 76.07 0.0
01 02:55 Calm 11.27 Fair CLR 23.9 23.4 97% 23 76.07 0.0
01 02:35 Calm 16.09 Fair CLR 23.7 23.1 96% 76.1 0.0
01 02:15 Calm 11.27 Fair CLR 24.6 23.6 94% 25 76.1 0.0
01 01:55 Calm 16.09 Fair CLR 24.9 23.6 93% 25 76.1 0.0
01 01:35 Calm 16.09 Fair CLR 24.6 23.7 95% 25 76.1 0.0
01 01:15 Calm 16.09 Fair CLR 25.4 23.8 91% 27 76.1 0.0
01 00:55 Calm 16.09 Partly Cloudy SCT120 25.8 24.1 31.3 25.2 90% 28 76.1 0.0
01 00:35 Calm 16.09 Partly Cloudy SCT120 25.9 24.1 90% 28 76.1 0.0
01 00:15 Calm 16.09 Partly Cloudy SCT120 25.9 24.2 90% 28 76.07 0.0
31 23:55 Calm 16.09 Partly Cloudy SCT120 26.2 24.4 90% 29 76.07 0.0
31 23:35 Calm 16.09 Fair CLR 26.1 24.2 89% 28 76.07 0.0
31 23:15 Calm 16.09 Partly Cloudy SCT120 25.6 24.2 92% 27 76.05 0.0
31 22:55 Calm 16.09 Mostly Cloudy BKN120 26.7 24.6 88% 30 76.05 0.0
31 22:35 S 7 16.09 Mostly Cloudy BKN120 26.5 24.6 89% 29 76.05 0.0
31 22:15 Calm 16.09 Mostly Cloudy BKN120 26.9 24.6 87% 30 76.05 0.0
31 21:55 Calm 8.05 Partly Cloudy with Haze SCT120 27 24.5 86% 30 76.05 0.0
31 21:35 Calm 16.09 Fair CLR 27.3 24.3 84% 31 76.05 0.0
31 21:15 Calm 11.27 Fair with Haze CLR 27.5 24.3 83% 31 76.02 0.0
31 20:55 Calm 16.09 Fair CLR 27.5 24.1 82% 31 76.02 0.0
31 20:35 Calm 16.09 Fair CLR 28.1 24.7 82% 33 76.02 0.0
31 20:15 Calm 16.09 Fair CLR 28.3 24.7 81% 33 76 0.0
31 19:55 Calm 16.09 Partly Cloudy SCT120 28.6 24.9 80% 34 75.97 0.0
31 19:35 Calm 16.09 Partly Cloudy SCT120 28.6 25 81% 34 76 0.0
31 19:15 Calm 16.09 Fair CLR 30.6 25.1 72% 37 75.97 0.0
31 18:35 Calm 16.09 Fair CLR 32 24.8 66% 39 75.97 0.0
31 18:15 SW 7 16.09 Fair CLR 32.4 24.2 62% 39 75.97 0.0
31 17:55 SW 9 16.09 Fair CLR 32.4 24.2 62% 39 75.97 0.0
31 17:35 SW 7 16.09 Fair CLR 32.7 23.8 59% 39 75.97 0.0
31 17:15 SW 9 16.09 Fair CLR 33.1 24.8 62% 40 75.97 0.0
31 16:55 SW 13 16.09 Fair CLR 32.8 23.8 59% 39 75.97 0.0
31 16:35 SW 15 16.09 Fair CLR 33.4 24 58% 40 75.97 0.0
31 16:15 SW 6 16.09 Fair CLR 33.6 24.2 58% 40 75.97 0.0
31 15:55 S 13 16.09 Fair CLR 33 23.3 57% 38 75.97 0.0
31 15:35 S 9 16.09 Fair CLR 32.7 23.1 57% 38 75.97 0.0
31 15:15 S 13 16.09 Fair CLR 33.2 24.3 60% 40 75.97 0.0
31 14:55 S 13 16.09 Fair CLR 33 23.9 59% 39 75.97 0.0
31 14:35 S 7 16.09 Fair CLR 33.1 22.9 55% 38 75.97 0.0
31 14:15 S 15 16.09 Fair CLR 32.5 23.2 58% 38 76 0.0
31 13:55 S 13 11.27 Fair with Haze CLR 31.9 22.7 58% 36 76 0.0
31 13:35 SW 7 16.09 Fair CLR 31.7 22.3 57% 36 75.97 0.0
31 13:15 Calm 16.09 Fair CLR 31.4 22.2 58% 35 76 0.0
31 12:55 SW 7 11.27 Fair CLR 31.4 22 31.6 24.3 57% 35 76 0.0
31 12:35 SW 6 16.09 Fair CLR 30.1 21.6 60% 33 76 0.0
31 12:15 SW 9 16.09 Fair CLR 30.6 21.9 60% 34 76 0.0
31 11:55 W 7 16.09 Fair CLR 30.1 21.3 59% 33 76 0.0
31 11:35 SW 7 16.09 Fair CLR 29.8 21.2 60% 32 76 0.0
31 11:15 W 11 16.09 Fair CLR 29 20.2 59% 31 75.97 0.0
31 10:55 W 17 16.09 Fair CLR 29.4 20.2 58% 31 76 0.0
31 10:35 W 15 16.09 Fair CLR 29 20.3 59% 31 76 0.0
31 10:15 SW 20 G 30 16.09 Fair CLR 28.6 19.7 59% 30 75.97 0.0
31 09:55 W 17 16.09 Fair CLR 28.4 19.9 60% 30 75.97 0.0
31 09:35 SW 19 16.09 Fair CLR 28 19.5 60% 29 75.95 0.0
31 09:15 SW 15 16.09 Fair CLR 27.4 19.2 61% 29 75.95 0.0
31 08:55 SW 19 G 30 16.09 Fair CLR 27.1 19.1 62% 28 75.95 0.0
31 08:35 SW 15 16.09 Fair CLR 26.1 18.7 64% 27 75.92 0.0
31 08:15 SW 19 16.09 Fair CLR 26.2 18.6 63% 27 75.92 0.0
31 07:55 SW 17 16.09 Fair CLR 25.6 18.4 65% 27 75.9 0.0
31 07:35 S 15 16.09 Fair CLR 24.9 18.2 66% 26 75.9 0.0
31 07:15 S 13 16.09 Fair CLR 24.6 18.1 67% 26 75.87 0.0
31 06:55 S 13 16.09 Fair CLR 24.5 18 26.1 24.5 67% 25 75.87 0.0
31 06:35 S 13 16.09 Fair CLR 24.7 17.9 66% 26 75.87 0.0
31 06:15 SW 13 16.09 Fair CLR 25.1 18 65% 26 75.87 0.0
31 05:55 S 13 16.09 Fair CLR 25.2 18 64% 26 75.84 0.0
31 05:35 S 13 16.09 Fair CLR 25.2 18 64% 26 75.84 0.0
31 05:15 S 13 16.09 Fair CLR 25 18.1 66% 26 75.82 0.0
31 04:55 S 11 16.09 Fair CLR 25 18.2 66% 26 75.84 0.0
31 04:35 S 9 16.09 Fair CLR 25.4 18.3 65% 26 75.84 0.0
31 04:15 S 9 16.09 Fair CLR 25.9 18.3 63% 27 75.84 0.0
31 03:55 S 15 16.09 Fair CLR 25.6 18.5 65% 27 75.84 0.0
31 03:35 S 13 16.09 Fair CLR 25.7 18.8 66% 27 75.84 0.0
31 03:15 S 19 16.09 Fair CLR 25.8 18.9 66% 27 75.84 0.0
31 02:55 S 13 16.09 Fair CLR 25.3 19.1 69% 26 75.84 0.0
31 02:35 S 13 16.09 Fair CLR 25.1 19.3 70% 26 75.84 0.0
31 02:15 S 11 16.09 Fair CLR 25.2 19.5 71% 26 75.84 0.0
31 01:55 S 13 16.09 Fair CLR 25.4 19.6 70% 26 75.87 0.0
31 01:35 S 15 16.09 Fair CLR 25.5 19.7 70% 27 75.87 0.0
31 01:15 S 13 16.09 Fair CLR 25.5 19.8 71% 27 75.87 0.0
31 00:55 S 11 16.09 Fair CLR 25.2 20 28.5 25.1 73% 26 75.87 0.0
31 00:35 SE 11 16.09 Fair CLR 25.2 20.2 74% 26 75.87 0.0
31 00:15 SE 11 16.09 Fair CLR 25.2 20.4 75% 26 75.84 0.0
30 23:55 SE 11 16.09 Fair CLR 25.6 20.5 73% 27 75.84 0.0
30 23:35 SE 17 16.09 Fair CLR 26 20.6 72% 27 75.84 0.0
30 23:15 SE 15 16.09 Fair CLR 26 20.7 73% 27 75.84 0.0
30 22:35 SE 13 16.09 Fair CLR 26 21 74% 27 75.87 0.0
30 22:15 SE 11 16.09 Fair CLR 26.4 21.6 75% 28 75.87 0.0
30 21:55 SE 11 16.09 Fair CLR 26.7 21.8 75% 29 75.87 0.0
30 21:35 SE 11 16.09 Fair CLR 27 22 74% 29 75.87 0.0
30 21:15 SE 11 16.09 Fair CLR 27.3 22.1 73% 30 75.87 0.0
30 20:55 SE 13 16.09 Fair CLR 27.6 22.1 72% 30 75.87 0.0
30 20:35 SE 17 16.09 Fair CLR 27.8 22.3 72% 31 75.84 0.0
30 20:15 SE 13 16.09 Fair CLR 27.6 22.7 75% 30 75.84 0.0
30 19:55 SE 13 16.09 Fair CLR 27.8 22.9 75% 31 75.82 0.0
30 19:35 SE 13 16.09 Fair CLR 27.9 23.2 76% 31 75.82 0.0
30 19:15 SE 13 16.09 Fair CLR 28 23.8 78% 32 75.82 0.0
30 18:55 SE 15 16.09 Fair CLR 28.5 23.8 29.4 25.5 76% 33 75.82 0.0
30 18:35 SE 13 16.09 Fair CLR 28.8 23.8 74% 33 75.82 0.0
30 18:15 SE 13 16.09 Fair CLR 29 23.8 74% 33 75.82 0.0
30 17:55 SE 15 16.09 Fair CLR 29 23.4 72% 33 75.82 0.0
30 17:35 SE 15 16.09 Fair CLR 29 23.2 71% 33 75.82 0.0
30 17:15 SE 11 16.09 Fair CLR 28.4 22.8 72% 32 75.84 0.0
30 16:55 SE 15 16.09 Fair CLR 28.8 22.9 70% 32 75.82 0.0
30 16:35 SE 13 16.09 Fair CLR 28.3 22.5 71% 31 75.84 0.0
30 16:15 SE 15 16.09 Fair CLR 27.6 22.3 73% 30 75.84 0.0
30 15:55 SE 13 16.09 Fair CLR 27.7 22.2 72% 30 75.87 0.0
30 15:35 SE 17 16.09 Fair CLR 26.9 21.6 73% 29 75.87 0.0
30 15:15 SE 11 16.09 Fair CLR 26.6 21.4 73% 28 75.9 0.0
30 14:55 SE 19 16.09 Fair CLR 26.5 21 72% 28 75.9 0.0
30 14:35 SE 15 16.09 Partly Cloudy SCT120 26.5 21 72% 28 75.92 0.0
30 14:15 SE 9 16.09 Partly Cloudy SCT120 26.4 20.9 72% 28 75.95 0.0
30 13:55 SE 13 16.09 Fair CLR 26.4 20.7 71% 28 75.95 0.0
30 13:35 S 13 16.09 Partly Cloudy SCT120 26.1 20.8 73% 28 75.95 0.0
30 13:15 SE 13 16.09 Fair CLR 25.6 20.8 75% 27 75.92 0.0
30 12:55 S 9 16.09 Partly Cloudy SCT120 25.7 21 26.1 23.2 75% 27 75.95 0.0
30 12:35 SE 11 16.09 Partly Cloudy SCT120 25.5 21.5 79% 27 75.97 0.0
30 12:15 SW 7 16.09 Partly Cloudy SCT065 SCT100 SCT120 25.6 21.3 77% 27 75.95 0.0
30 11:55 SW 7 16.09 Light Rain SCT046 SCT065 BKN100 24.9 20.8 78% 26 75.95 0.0
30 11:35 W 7 16.09 Overcast SCT044 SCT080 OVC120 24.1 20.9 82% 24 75.97 0.0
30 11:15 W 11 16.09 Rain SCT045 SCT070 BKN095 24.3 20.2 78% 25 75.95 0.0
30 10:55 W 13 16.09 Partly Cloudy SCT120 24.5 19.8 75% 25 75.95 0.0
30 10:35 SW 13 16.09 Fair CLR 24.4 19.7 75% 25 75.92 0.0
30 10:15 SW 15 16.09 Partly Cloudy SCT100 24.1 19.2 74% 25 75.9 0.0
30 09:55 S 9 16.09 Light Rain SCT049 SCT070 OVC100 23.4 18.9 76% 75.87 0.0
30 09:35 SW 20 16.09 Light Rain SCT060 SCT080 OVC100 23.5 18.8 75% 75.9 0.0
30 09:15 SW 20 G 28 16.09 Light Rain SCT065 SCT075 BKN110 24.8 18.2 67% 26 75.92 0.0
30 08:55 SW 20 G 33 16.09 Mostly Cloudy BKN110 25.9 18 62% 27 75.92 0.0
30 08:35 S 20 16.09 Partly Cloudy SCT110 25.3 17.7 63% 26 75.92 0.0
30 08:15 S 15 16.09 Partly Cloudy SCT110 25.3 17.6 62% 26 75.9 0.0
30 07:55 S 15 16.09 Fair CLR 25.2 17.1 61% 26 75.9 0.0
30 07:35 SW 15 16.09 Partly Cloudy SCT110 24.9 17 62% 26 75.92 0.0
30 07:15 S 11 16.09 Partly Cloudy SCT110 25.2 16.9 60% 26 75.9 0.0
30 06:55 S 9 16.09 Mostly Cloudy BKN110 25.1 16.9 25.3 23.9 60% 26 75.87 0.0
30 06:35 S 11 16.09 Partly Cloudy SCT120 25 17 61% 26 75.87 0.0
30 06:15 S 15 16.09 Partly Cloudy SCT110 24.6 17.2 64% 26 75.9 0.0
30 05:55 S 11 16.09 Fair CLR 24.5 17.3 64% 26 75.9 0.0
30 05:35 S 13 16.09 Fair CLR 24.6 17.4 64% 26 75.9 0.0
30 05:15 S 11 16.09 Fair CLR 24.2 17.5 66% 25 75.9 0.0
30 04:55 S 13 16.09 Fair CLR 24.2 17.5 66% 25 75.9 0.0
30 04:35 S 11 16.09 Fair CLR 24.1 17.5 67% 25 75.9 0.0
30 04:15 S 15 16.09 Fair CLR 23.9 17.5 68% 25 75.9 0.0
30 03:55 S 11 16.09 Fair CLR 24.3 17.6 66% 25 75.9 0.0
30 03:35 S 9 16.09 Fair CLR 24.2 17.6 67% 25 75.9 0.0
30 03:15 S 13 16.09 Fair CLR 24.1 17.7 68% 25 75.9 0.0
30 02:55 S 13 16.09 Fair CLR 24.2 17.8 68% 25 75.87 0.0
30 02:35 S 15 16.09 Fair CLR 24.3 17.9 68% 25 75.9 0.0
30 02:15 S 17 16.09 Fair CLR 24.3 18.1 68% 25 75.9 0.0
30 01:55 S 15 G 28 16.09 Fair CLR 24.3 18.4 70% 25 75.9 0.0
30 01:35 S 13 16.09 Fair CLR 24.1 18.6 71% 25 75.92 0.0
30 01:15 S 15 16.09 Fair CLR 24.2 18.8 72% 25 75.92 0.0
30 00:55 S 11 16.09 Fair CLR 24.1 19 26.9 24.1 73% 25 75.92 0.0
30 00:35 SE 15 16.09 Fair CLR 24.4 19.1 72% 25 75.92 0.0
30 00:15 S 17 16.09 Fair CLR 24.5 19.3 73% 25 75.92 0.0
29 23:55 S 17 G 26 16.09 Fair CLR 24.7 19.4 72% 26 75.92 0.0
29 23:35 S 17 G 28 16.09 Fair CLR 24.7 19.5 73% 26 75.9 0.0
29 23:15 S 17 G 26 16.09 Fair CLR 24.7 19.6 73% 26 75.92 0.0
29 22:55 S 15 16.09 Fair CLR 24.7 19.6 73% 26 75.92 0.0
29 22:35 S 15 16.09 Fair CLR 24.8 19.7 73% 26 75.9 0.0
29 22:15 S 19 16.09 Fair CLR 25.1 19.8 73% 26 75.92 0.0
29 21:55 S 17 16.09 Fair CLR 25.3 19.9 72% 26 75.92 0.0
29 21:35 S 17 16.09 Fair CLR 25.5 20.1 72% 27 75.9 0.0
29 21:15 S 17 G 26 16.09 Fair CLR 25.6 20.3 73% 27 75.9 0.0
29 20:55 S 20 16.09 Fair CLR 25.7 20.4 73% 27 75.87 0.0
29 20:35 S 20 G 31 16.09 Fair CLR 25.9 20.6 73% 27 75.84 0.0
29 20:15 S 24 G 37 16.09 Fair CLR 26.2 20.7 72% 28 75.84 0.0
29 19:55 S 17 16.09 Fair CLR 26.3 20.8 72% 28 75.84 0.0
29 19:35 SE 20 G 30 16.09 Fair CLR 26.3 20.8 72% 28 75.84 0.0
29 19:15 SE 20 G 30 16.09 Fair CLR 26.6 20.7 70% 28 75.84 0.0
29 18:55 S 26 G 33 16.09 Fair CLR 26.8 21 28.3 20.5 71% 29 75.84 0.0
29 18:35 SE 13 16.09 Fair CLR 27 21.4 71% 29 75.87 0.0
29 18:15 S 20 G 31 16.09 Fair CLR 27.9 21.1 67% 30 75.87 0.0
Date Time (cdt) Wind (kph) Vis. (km) Weather Sky Cond. Air Dwpt Max. Min. Relative Humidity Wind Chill (°C) Heat Index (°C) altimeter (cm) sea level (mb) 1 hr 3 hr 6 hr
6 hour
Temperature (ºC) Pressure Precipitation (cm)